createdAt,value
2018-09-16T00:02:14.506Z,11.70
2018-09-16T00:04:42.329Z,11.80
2018-09-16T00:07:09.637Z,11.70
2018-09-16T00:09:40.585Z,11.70
2018-09-16T00:12:07.821Z,11.70
2018-09-16T00:14:35.062Z,11.70
2018-09-16T00:17:02.540Z,11.70
2018-09-16T00:19:30.038Z,11.70
2018-09-16T00:21:57.572Z,11.50
2018-09-16T00:24:25.061Z,11.50
2018-09-16T00:26:52.373Z,11.40
2018-09-16T00:29:19.746Z,11.50
2018-09-16T00:31:51.697Z,11.40
2018-09-16T00:34:18.974Z,11.40
2018-09-16T00:36:46.177Z,11.20
2018-09-16T00:39:13.448Z,11.20
2018-09-16T00:41:40.656Z,11.30
2018-09-16T00:44:07.899Z,11.30
2018-09-16T00:46:35.156Z,11.20
2018-09-16T00:49:02.366Z,11.30
2018-09-16T00:51:29.613Z,11.20
2018-09-16T00:53:57.063Z,11.20
2018-09-16T00:56:24.506Z,11.00
2018-09-16T00:58:51.721Z,11.10
2018-09-16T01:01:18.937Z,11.00
2018-09-16T01:03:46.141Z,11.00
2018-09-16T01:06:19.248Z,11.10
2018-09-16T01:08:46.501Z,11.10
2018-09-16T01:11:13.953Z,11.20
2018-09-16T01:13:41.149Z,11.00
2018-09-16T01:16:08.413Z,11.00
2018-09-16T01:18:35.618Z,11.00
2018-09-16T01:21:02.857Z,11.00
2018-09-16T01:23:30.093Z,10.90
2018-09-16T01:25:57.327Z,10.80
2018-09-16T01:28:24.536Z,10.90
2018-09-16T01:30:51.753Z,10.80
2018-09-16T01:33:19.953Z,10.80
2018-09-16T01:35:47.205Z,10.70
2018-09-16T01:38:20.230Z,10.60
2018-09-16T01:40:47.469Z,10.60
2018-09-16T01:43:14.679Z,10.60
2018-09-16T01:45:41.905Z,10.60
2018-09-16T01:48:09.249Z,10.60
2018-09-16T01:50:36.473Z,10.60
2018-09-16T01:53:03.709Z,10.50
2018-09-16T01:55:30.913Z,10.60
2018-09-16T01:57:58.129Z,10.60
2018-09-16T02:00:25.389Z,10.60
2018-09-16T02:02:54.045Z,10.60
2018-09-16T02:05:26.881Z,10.60
2018-09-16T02:07:54.809Z,10.60
2018-09-16T02:10:22.489Z,10.70
2018-09-16T02:12:49.773Z,10.60
2018-09-16T02:15:17.833Z,10.50
2018-09-16T02:17:45.418Z,10.60
2018-09-16T02:20:12.749Z,10.40
2018-09-16T02:22:39.998Z,10.40
2018-09-16T02:25:07.513Z,10.40
2018-09-16T02:27:34.737Z,10.40
2018-09-16T02:30:02.329Z,10.40
2018-09-16T02:32:29.644Z,10.40
2018-09-16T02:34:56.859Z,10.30
2018-09-16T02:37:24.070Z,10.30
2018-09-16T02:39:51.297Z,10.30
2018-09-16T02:42:18.510Z,10.30
2018-09-16T02:44:45.721Z,10.30
2018-09-16T02:47:12.953Z,10.20
2018-09-16T02:49:40.177Z,10.30
2018-09-16T02:52:07.392Z,10.30
2018-09-16T02:54:34.610Z,10.20
2018-09-16T02:57:01.809Z,10.30
2018-09-16T02:59:29.037Z,10.20
2018-09-16T03:01:56.233Z,10.10
2018-09-16T03:04:23.450Z,10.00
2018-09-16T03:06:50.648Z,10.10
2018-09-16T03:09:17.907Z,10.10
2018-09-16T03:11:45.130Z,10.00
2018-09-16T03:14:12.301Z,10.00
2018-09-16T03:16:39.502Z,10.00
2018-09-16T03:19:06.709Z,10.00
2018-09-16T03:21:33.909Z,9.90
2018-09-16T03:24:01.191Z,9.90
2018-09-16T03:26:28.435Z,9.90
2018-09-16T03:28:55.670Z,10.00
2018-09-16T03:31:22.901Z,9.90
2018-09-16T03:33:50.133Z,9.90
2018-09-16T03:36:17.377Z,9.80
2018-09-16T03:38:44.613Z,9.90
2018-09-16T03:41:11.837Z,9.90
2018-09-16T03:43:39.072Z,9.90
2018-09-16T03:46:10.912Z,10.00
2018-09-16T03:48:38.114Z,10.00
2018-09-16T03:51:05.358Z,10.00
2018-09-16T03:53:32.557Z,9.80
2018-09-16T03:55:59.769Z,9.80
2018-09-16T03:58:26.969Z,9.70
2018-09-16T04:00:54.228Z,9.70
2018-09-16T04:03:21.441Z,9.80
2018-09-16T04:05:48.658Z,9.80
2018-09-16T04:08:15.861Z,9.80
2018-09-16T04:10:43.069Z,9.70
2018-09-16T04:13:10.285Z,9.50
2018-09-16T04:15:37.502Z,9.50
2018-09-16T04:18:04.721Z,9.60
2018-09-16T04:20:31.949Z,9.60
2018-09-16T04:22:59.149Z,9.60
2018-09-16T04:25:26.341Z,9.50
2018-09-16T04:27:53.558Z,9.40
2018-09-16T04:30:20.761Z,9.40
2018-09-16T04:32:48.013Z,9.40
2018-09-16T04:35:15.204Z,9.40
2018-09-16T04:37:42.441Z,9.40
2018-09-16T04:40:09.892Z,9.50
2018-09-16T04:42:37.483Z,9.50
2018-09-16T04:45:04.754Z,9.50
2018-09-16T04:47:31.981Z,9.40
2018-09-16T04:49:59.213Z,9.30
2018-09-16T04:52:26.417Z,9.30
2018-09-16T04:54:53.630Z,9.20
2018-09-16T04:57:20.853Z,9.10
2018-09-16T04:59:48.109Z,9.20
2018-09-16T05:02:15.373Z,9.20
2018-09-16T05:04:42.642Z,9.20
2018-09-16T05:07:09.855Z,8.90
2018-09-16T05:09:37.070Z,8.80
2018-09-16T05:12:04.289Z,9.00
2018-09-16T05:14:31.501Z,9.00
2018-09-16T05:16:58.713Z,9.00
2018-09-16T05:19:25.993Z,9.10
2018-09-16T05:21:53.199Z,9.00
2018-09-16T05:24:20.450Z,9.00
2018-09-16T05:26:47.673Z,9.20
2018-09-16T05:29:14.905Z,9.20
2018-09-16T05:31:42.110Z,9.00
2018-09-16T05:34:09.329Z,9.00
2018-09-16T05:36:36.605Z,9.10
2018-09-16T05:39:06.583Z,8.80
2018-09-16T05:41:33.778Z,8.80
2018-09-16T05:44:00.993Z,8.80
2018-09-16T05:46:28.207Z,9.10
2018-09-16T05:48:55.433Z,9.20
2018-09-16T05:51:22.665Z,9.30
2018-09-16T05:53:49.877Z,9.50
2018-09-16T05:56:17.109Z,9.50
2018-09-16T05:58:44.337Z,9.40
2018-09-16T06:01:11.554Z,9.50
2018-09-16T06:03:38.777Z,9.60
2018-09-16T06:06:06.026Z,9.90
2018-09-16T06:08:33.226Z,9.90
2018-09-16T06:11:00.474Z,9.90
2018-09-16T06:13:27.692Z,10.00
2018-09-16T06:15:54.937Z,10.00
2018-09-16T06:18:22.165Z,10.10
2018-09-16T06:20:49.395Z,10.10
2018-09-16T06:23:16.613Z,10.20
2018-09-16T06:25:43.837Z,10.30
2018-09-16T06:28:11.033Z,10.40
2018-09-16T06:30:38.249Z,10.40
2018-09-16T06:33:05.444Z,10.50
2018-09-16T06:35:32.657Z,10.60
2018-09-16T06:37:59.853Z,10.70
2018-09-16T06:40:27.066Z,10.80
2018-09-16T06:42:54.317Z,10.90
2018-09-16T06:45:21.520Z,11.00
2018-09-16T06:47:48.766Z,11.10
2018-09-16T06:50:15.985Z,11.10
2018-09-16T06:52:43.193Z,11.10
2018-09-16T06:55:10.425Z,11.20
2018-09-16T06:57:37.649Z,11.30
2018-09-16T07:00:05.002Z,11.40
2018-09-16T07:02:32.213Z,11.40
2018-09-16T07:04:59.429Z,11.50
2018-09-16T07:07:26.661Z,11.60
2018-09-16T07:09:53.862Z,11.70
2018-09-16T07:12:21.077Z,11.80
2018-09-16T07:14:48.277Z,11.80
2018-09-16T07:17:15.497Z,11.90
2018-09-16T07:19:42.701Z,12.00
2018-09-16T07:22:09.925Z,12.00
2018-09-16T07:24:37.133Z,12.10
2018-09-16T07:27:04.382Z,12.20
2018-09-16T07:29:31.585Z,12.30
2018-09-16T07:31:58.828Z,12.40
2018-09-16T07:34:26.037Z,12.40
2018-09-16T07:36:53.270Z,12.50
2018-09-16T07:39:20.512Z,12.60
2018-09-16T07:41:47.729Z,12.60
2018-09-16T07:44:15.037Z,12.60
2018-09-16T07:46:42.261Z,12.70
2018-09-16T07:49:09.462Z,12.80
2018-09-16T07:51:36.710Z,12.90
2018-09-16T07:54:03.954Z,13.00
2018-09-16T07:56:31.173Z,13.10
2018-09-16T07:58:58.402Z,13.20
2018-09-16T08:01:25.621Z,13.20
2018-09-16T08:03:52.845Z,13.30
2018-09-16T08:06:20.127Z,13.40
2018-09-16T08:08:47.349Z,13.50
2018-09-16T08:11:14.578Z,13.50
2018-09-16T08:13:41.854Z,13.60
2018-09-16T08:16:09.029Z,13.80
2018-09-16T08:18:36.261Z,13.90
2018-09-16T08:21:03.617Z,13.90
2018-09-16T08:23:30.749Z,14.00
2018-09-16T08:25:58.023Z,14.10
2018-09-16T08:28:25.304Z,14.10
2018-09-16T08:30:52.510Z,14.20
2018-09-16T08:33:19.843Z,14.30
2018-09-16T08:35:47.070Z,14.50
2018-09-16T08:38:14.289Z,14.50
2018-09-16T08:40:41.517Z,14.60
2018-09-16T08:43:08.749Z,14.70
2018-09-16T08:45:36.015Z,14.80
2018-09-16T08:48:03.216Z,14.90
2018-09-16T08:50:30.453Z,15.00
2018-09-16T08:52:57.645Z,15.10
2018-09-16T08:55:24.860Z,15.20
2018-09-16T08:57:52.209Z,15.20
2018-09-16T09:00:19.470Z,15.30
2018-09-16T09:02:46.742Z,15.40
2018-09-16T09:05:14.049Z,15.40
2018-09-16T09:07:41.310Z,15.50
2018-09-16T09:10:08.589Z,15.60
2018-09-16T09:12:35.857Z,15.80
2018-09-16T09:15:03.169Z,16.00
2018-09-16T09:17:30.437Z,16.10
2018-09-16T09:19:57.817Z,16.30
2018-09-16T09:22:25.144Z,16.40
2018-09-16T09:24:52.533Z,16.50
2018-09-16T09:27:19.828Z,16.50
2018-09-16T09:29:47.118Z,16.70
2018-09-16T09:32:14.449Z,16.70
2018-09-16T09:34:41.734Z,16.80
2018-09-16T09:37:08.994Z,16.90
2018-09-16T09:39:36.292Z,17.00
2018-09-16T09:42:03.574Z,17.10
2018-09-16T09:44:30.837Z,17.10
2018-09-16T09:46:58.117Z,17.10
2018-09-16T09:49:25.503Z,17.10
2018-09-16T09:51:52.785Z,17.30
2018-09-16T09:54:20.046Z,17.40
2018-09-16T09:56:47.387Z,17.50
2018-09-16T09:59:14.799Z,17.60
2018-09-16T10:01:41.938Z,17.60
2018-09-16T10:04:09.145Z,17.60
2018-09-16T10:06:36.368Z,17.80
2018-09-16T10:09:06.084Z,17.90
2018-09-16T10:11:33.289Z,17.90
2018-09-16T10:14:00.492Z,17.90
2018-09-16T10:16:27.729Z,18.00
2018-09-16T10:18:54.962Z,18.10
2018-09-16T10:21:22.278Z,18.20
2018-09-16T10:23:49.485Z,18.30
2018-09-16T10:26:16.685Z,18.30
2018-09-16T10:28:43.941Z,18.50
2018-09-16T10:31:11.245Z,18.40
2018-09-16T10:33:38.484Z,18.50
2018-09-16T10:36:05.938Z,18.60
2018-09-16T10:38:33.294Z,18.60
2018-09-16T10:41:00.432Z,18.60
2018-09-16T10:43:27.838Z,18.70
2018-09-16T10:45:55.152Z,18.80
2018-09-16T10:48:22.708Z,18.80
2018-09-16T10:50:49.949Z,18.90
2018-09-16T10:53:17.141Z,18.90
2018-09-16T10:55:44.404Z,19.10
2018-09-16T10:58:11.735Z,19.10
2018-09-16T11:00:39.054Z,19.10
2018-09-16T11:03:06.385Z,19.10
2018-09-16T11:05:33.645Z,19.10
2018-09-16T11:08:00.925Z,19.10
2018-09-16T11:10:28.257Z,19.20
2018-09-16T11:12:55.575Z,19.10
2018-09-16T11:15:22.860Z,19.20
2018-09-16T11:17:50.121Z,19.30
2018-09-16T11:20:17.417Z,19.30
2018-09-16T11:22:44.681Z,19.40
2018-09-16T11:25:11.934Z,19.40
2018-09-16T11:27:39.197Z,19.40
2018-09-16T11:30:06.533Z,19.50
2018-09-16T11:32:33.760Z,19.70
2018-09-16T11:35:01.077Z,19.70
2018-09-16T11:37:29.949Z,19.80
2018-09-16T11:39:57.204Z,19.90
2018-09-16T11:42:25.226Z,19.90
2018-09-16T11:44:52.597Z,19.90
2018-09-16T11:47:19.918Z,19.90
2018-09-16T11:49:47.265Z,19.90
2018-09-16T11:52:14.535Z,19.90
2018-09-16T11:54:41.905Z,19.90
2018-09-16T11:57:09.530Z,19.90
2018-09-16T11:59:36.837Z,19.90
2018-09-16T12:02:04.205Z,20.00
2018-09-16T12:04:31.497Z,20.00
2018-09-16T12:06:59.006Z,20.10
2018-09-16T12:09:26.301Z,20.10
2018-09-16T12:11:53.585Z,20.10
2018-09-16T12:14:20.977Z,20.10
2018-09-16T12:16:48.310Z,20.10
2018-09-16T12:19:15.577Z,20.20
2018-09-16T12:21:42.847Z,20.20
2018-09-16T12:24:10.109Z,20.20
2018-09-16T12:26:37.434Z,20.20
2018-09-16T12:29:04.938Z,20.20
2018-09-16T12:31:32.191Z,20.20
2018-09-16T12:33:59.457Z,20.30
2018-09-16T12:36:26.714Z,20.40
2018-09-16T12:38:53.960Z,20.50
2018-09-16T12:41:21.229Z,20.60
2018-09-16T12:43:48.479Z,20.60
2018-09-16T12:46:15.741Z,20.70
2018-09-16T12:48:42.993Z,20.60
2018-09-16T12:51:10.262Z,20.60
2018-09-16T12:53:37.658Z,20.60
2018-09-16T12:56:04.987Z,20.60
2018-09-16T12:58:32.262Z,20.70
2018-09-16T13:00:59.490Z,20.70
2018-09-16T13:03:26.689Z,20.80
2018-09-16T13:05:53.905Z,20.90
2018-09-16T13:08:21.111Z,21.00
2018-09-16T13:10:48.321Z,21.00
2018-09-16T13:13:15.546Z,21.00
2018-09-16T13:15:42.781Z,21.10
2018-09-16T13:18:10.056Z,21.00
2018-09-16T13:20:38.712Z,21.00
2018-09-16T13:23:05.901Z,21.20
2018-09-16T13:25:33.089Z,21.10
2018-09-16T13:28:00.306Z,21.10
2018-09-16T13:30:27.505Z,21.10
2018-09-16T13:32:58.378Z,21.20
2018-09-16T13:35:25.727Z,21.20
2018-09-16T13:37:52.953Z,21.20
2018-09-16T13:40:20.173Z,21.20
2018-09-16T13:42:47.382Z,21.20
2018-09-16T13:45:15.126Z,21.20
2018-09-16T13:47:42.526Z,21.20
2018-09-16T13:50:09.761Z,21.20
2018-09-16T13:52:38.560Z,21.30
2018-09-16T13:55:05.837Z,21.30
2018-09-16T13:57:34.294Z,21.30
2018-09-16T14:00:01.529Z,21.40
2018-09-16T14:02:28.788Z,21.40
2018-09-16T14:04:56.422Z,21.50
2018-09-16T14:07:23.617Z,21.40
2018-09-16T14:09:50.833Z,21.40
2018-09-16T14:12:18.153Z,21.40
2018-09-16T14:14:45.350Z,21.50
2018-09-16T14:17:12.569Z,21.50
2018-09-16T14:19:39.773Z,21.60
2018-09-16T14:22:06.970Z,21.60
2018-09-16T14:24:34.181Z,21.60
2018-09-16T14:27:01.377Z,21.70
2018-09-16T14:29:28.581Z,21.60
2018-09-16T14:31:57.938Z,21.70
2018-09-16T14:34:25.154Z,22.70
2018-09-16T14:36:52.417Z,21.80
2018-09-16T14:39:21.138Z,21.80
2018-09-16T14:41:48.322Z,21.70
2018-09-16T14:44:17.571Z,21.70
2018-09-16T14:46:44.831Z,21.80
2018-09-16T14:49:12.031Z,21.90
2018-09-16T14:51:39.245Z,21.90
2018-09-16T14:54:06.496Z,21.90
2018-09-16T14:56:33.785Z,22.00
2018-09-16T14:59:01.091Z,21.90
2018-09-16T15:01:28.345Z,21.90
2018-09-16T15:03:55.601Z,21.80
2018-09-16T15:06:22.877Z,21.80
2018-09-16T15:08:50.147Z,21.80
2018-09-16T15:11:17.409Z,21.80
2018-09-16T15:13:44.731Z,21.70
2018-09-16T15:16:12.010Z,21.70
2018-09-16T15:18:39.277Z,21.70
2018-09-16T15:21:06.639Z,21.70
2018-09-16T15:23:33.860Z,21.70
2018-09-16T15:26:01.147Z,21.70
2018-09-16T15:28:28.595Z,21.70
2018-09-16T15:30:55.884Z,21.70
2018-09-16T15:33:23.351Z,21.70
2018-09-16T15:35:51.358Z,21.70
2018-09-16T15:38:18.608Z,21.70
2018-09-16T15:40:46.061Z,21.70
2018-09-16T15:43:13.346Z,21.70
2018-09-16T15:45:40.593Z,21.70
2018-09-16T15:48:07.824Z,21.70
2018-09-16T15:50:35.033Z,21.70
2018-09-16T15:53:02.589Z,21.70
2018-09-16T15:55:30.027Z,21.70
2018-09-16T15:57:57.298Z,21.70
2018-09-16T16:00:24.609Z,21.70
2018-09-16T16:02:51.893Z,21.70
2018-09-16T16:05:19.150Z,21.70
2018-09-16T16:07:46.401Z,21.70
2018-09-16T16:10:14.470Z,21.70
2018-09-16T16:12:41.757Z,21.80
2018-09-16T16:15:09.037Z,21.60
2018-09-16T16:17:36.325Z,21.70
2018-09-16T16:20:03.633Z,21.60
2018-09-16T16:22:30.925Z,21.50
2018-09-16T16:24:58.185Z,21.60
2018-09-16T16:27:25.461Z,21.60
2018-09-16T16:29:52.710Z,21.60
2018-09-16T16:32:20.013Z,21.60
2018-09-16T16:34:47.253Z,21.60
2018-09-16T16:37:14.525Z,21.60
2018-09-16T16:39:41.781Z,21.50
2018-09-16T16:42:09.041Z,21.50
2018-09-16T16:44:36.336Z,21.40
2018-09-16T16:47:03.609Z,21.40
2018-09-16T16:52:12.138Z,21.30
2018-09-16T16:54:39.381Z,21.20
2018-09-16T16:57:06.670Z,21.10
2018-09-16T16:59:33.913Z,21.00
2018-09-16T17:02:03.266Z,20.90
2018-09-16T17:04:30.522Z,20.90
2018-09-16T17:06:57.769Z,20.70
2018-09-16T17:09:25.113Z,20.60
2018-09-16T17:11:52.329Z,20.30
2018-09-16T17:14:19.642Z,20.20
2018-09-16T17:16:46.902Z,20.00
2018-09-16T17:19:14.275Z,19.80
2018-09-16T17:21:41.529Z,19.70
2018-09-16T17:24:08.797Z,19.50
2018-09-16T17:26:36.049Z,19.50
2018-09-16T17:29:04.545Z,19.40
2018-09-16T17:31:31.778Z,19.20
2018-09-16T17:33:59.190Z,19.20
2018-09-16T17:36:26.442Z,19.10
2018-09-16T17:38:55.485Z,19.00
2018-09-16T17:41:22.785Z,18.90
2018-09-16T17:43:50.794Z,18.80
2018-09-16T17:46:18.106Z,18.70
2018-09-16T17:48:45.696Z,18.60
2018-09-16T17:51:12.998Z,18.40
2018-09-16T17:53:40.322Z,18.40
2018-09-16T17:56:07.640Z,18.30
2018-09-16T17:58:34.989Z,18.30
2018-09-16T18:01:02.277Z,18.20
2018-09-16T18:03:29.541Z,18.00
2018-09-16T18:05:56.817Z,18.10
2018-09-16T18:08:29.842Z,18.00
2018-09-16T18:10:57.146Z,17.90
2018-09-16T18:13:24.502Z,17.80
2018-09-16T18:15:51.769Z,17.60
2018-09-16T18:18:19.115Z,17.60
2018-09-16T18:20:46.774Z,17.50
2018-09-16T18:23:14.027Z,17.40
2018-09-16T18:25:41.362Z,17.40
2018-09-16T18:28:08.701Z,17.40
2018-09-16T18:30:36.574Z,17.30
2018-09-16T18:33:03.853Z,17.10
2018-09-16T18:35:31.225Z,17.00
2018-09-16T18:37:58.489Z,16.90
2018-09-16T18:40:25.901Z,16.80
2018-09-16T18:42:53.228Z,16.90
2018-09-16T18:45:20.609Z,16.80
2018-09-16T18:47:47.915Z,16.80
2018-09-16T18:50:15.189Z,16.70
2018-09-16T18:52:42.501Z,16.60
2018-09-16T18:55:09.941Z,16.50
2018-09-16T18:57:37.311Z,16.40
2018-09-16T19:00:04.534Z,16.40
2018-09-16T19:02:31.745Z,16.40
2018-09-16T19:04:59.041Z,16.50
2018-09-16T19:07:26.257Z,16.50
2018-09-16T19:09:53.473Z,16.40
2018-09-16T19:12:20.777Z,16.50
2018-09-16T19:14:48.089Z,16.50
2018-09-16T19:17:15.373Z,16.50
2018-09-16T19:19:42.621Z,16.40
2018-09-16T19:22:09.837Z,16.40
2018-09-16T19:24:37.033Z,16.40
2018-09-16T19:27:04.269Z,16.40
2018-09-16T19:29:31.525Z,16.20
2018-09-16T19:31:58.805Z,16.20
2018-09-16T19:34:26.113Z,16.20
2018-09-16T19:36:53.325Z,16.10
2018-09-16T19:39:20.553Z,16.00
2018-09-16T19:41:47.799Z,15.90
2018-09-16T19:44:15.073Z,15.90
2018-09-16T19:46:42.280Z,15.90
2018-09-16T19:49:09.557Z,15.90
2018-09-16T19:51:36.749Z,15.60
2018-09-16T19:54:03.998Z,15.60
2018-09-16T19:56:31.245Z,15.50
2018-09-16T19:58:58.509Z,15.40
2018-09-16T20:01:25.790Z,15.40
2018-09-16T20:03:53.081Z,15.40
2018-09-16T20:06:20.389Z,15.40
2018-09-16T20:08:47.669Z,15.40
2018-09-16T20:11:14.975Z,15.40
2018-09-16T20:13:42.237Z,15.30
2018-09-16T20:16:09.530Z,15.30
2018-09-16T20:18:36.797Z,15.20
2018-09-16T20:21:04.121Z,15.10
2018-09-16T20:23:31.406Z,15.10
2018-09-16T20:25:58.756Z,15.00
2018-09-16T20:28:25.995Z,15.00
2018-09-16T20:30:53.248Z,15.00
2018-09-16T20:33:20.553Z,14.80
2018-09-16T20:35:47.858Z,14.80
2018-09-16T20:38:15.198Z,14.80
2018-09-16T20:40:42.506Z,14.80
2018-09-16T20:43:09.799Z,14.90
2018-09-16T20:45:37.093Z,15.00
2018-09-16T20:48:04.653Z,14.90
2018-09-16T20:50:31.937Z,14.80
2018-09-16T20:52:59.234Z,14.70
2018-09-16T20:55:26.493Z,14.70
2018-09-16T20:57:53.749Z,14.80
2018-09-16T21:00:20.965Z,14.80
2018-09-16T21:02:48.191Z,14.70
2018-09-16T21:05:15.417Z,14.70
2018-09-16T21:07:42.681Z,14.70
2018-09-16T21:10:09.990Z,14.50
2018-09-16T21:12:37.169Z,14.60
2018-09-16T21:15:04.557Z,14.60
2018-09-16T21:17:31.783Z,14.50
2018-09-16T21:19:59.084Z,14.50
2018-09-16T21:22:26.222Z,14.30
2018-09-16T21:24:53.449Z,14.10
2018-09-16T21:27:20.758Z,13.90
2018-09-16T21:29:47.978Z,13.80
2018-09-16T21:32:15.267Z,13.70
2018-09-16T21:34:42.575Z,13.60
2018-09-16T21:37:09.815Z,13.50
2018-09-16T21:39:37.034Z,13.40
2018-09-16T21:42:04.265Z,13.40
2018-09-16T21:44:31.493Z,13.40
2018-09-16T21:46:58.782Z,13.40
2018-09-16T21:49:26.010Z,13.50
2018-09-16T21:51:53.377Z,13.50
2018-09-16T21:54:20.595Z,13.60
2018-09-16T21:56:47.833Z,13.40
2018-09-16T21:59:15.177Z,13.40
2018-09-16T22:01:42.549Z,13.30
2018-09-16T22:04:09.958Z,13.20
2018-09-16T22:06:37.253Z,13.20
2018-09-16T22:09:06.906Z,13.40
2018-09-16T22:11:34.278Z,13.60
2018-09-16T22:14:01.673Z,13.70
2018-09-16T22:16:29.023Z,13.70
2018-09-16T22:18:57.413Z,13.80
2018-09-16T22:21:24.794Z,13.80
2018-09-16T22:23:52.094Z,13.60
2018-09-16T22:26:19.662Z,13.50
2018-09-16T22:28:47.666Z,13.60
2018-09-16T22:31:14.965Z,13.70
2018-09-16T22:33:42.229Z,13.80
2018-09-16T22:36:09.760Z,13.70
2018-09-16T22:38:37.398Z,13.70
2018-09-16T22:41:04.683Z,13.70
2018-09-16T22:43:32.059Z,13.70
2018-09-16T22:45:59.489Z,13.60
2018-09-16T22:48:26.845Z,13.50
2018-09-16T22:50:54.198Z,13.40
2018-09-16T22:53:21.490Z,13.50
2018-09-16T22:55:48.781Z,13.50
2018-09-16T22:58:16.093Z,13.40
2018-09-16T23:00:43.342Z,13.40
2018-09-16T23:03:10.561Z,13.40
2018-09-16T23:05:38.005Z,13.50
2018-09-16T23:08:05.344Z,13.40
2018-09-16T23:10:32.577Z,13.20
2018-09-16T23:12:59.797Z,13.30
2018-09-16T23:15:27.038Z,13.40
2018-09-16T23:17:54.380Z,13.30
2018-09-16T23:20:21.668Z,13.20
2018-09-16T23:22:49.061Z,13.10
2018-09-16T23:25:16.272Z,13.00
2018-09-16T23:27:43.493Z,13.00
2018-09-16T23:30:10.733Z,13.00
2018-09-16T23:32:37.978Z,13.20
2018-09-16T23:35:05.265Z,13.10
2018-09-16T23:37:32.489Z,13.20
2018-09-16T23:39:59.699Z,13.10
2018-09-16T23:42:26.921Z,13.00
2018-09-16T23:44:54.146Z,13.10
2018-09-16T23:47:21.358Z,12.90
2018-09-16T23:49:48.558Z,12.80
2018-09-16T23:52:15.761Z,12.70
2018-09-16T23:54:42.984Z,12.80
2018-09-16T23:57:10.205Z,12.90
2018-09-16T23:59:37.498Z,12.80
